createdAt,value
2019-02-02T00:02:29.840Z,43.04
2019-02-02T00:05:03.265Z,43.13
2019-02-02T00:07:37.805Z,43.04
2019-02-02T00:10:11.920Z,43.13
2019-02-02T00:12:45.728Z,43.06
2019-02-02T00:15:18.984Z,43.15
2019-02-02T00:17:52.199Z,42.97
2019-02-02T00:20:26.528Z,42.98
2019-02-02T00:22:59.649Z,42.83
2019-02-02T00:25:36.328Z,42.77
2019-02-02T00:28:09.545Z,42.58
2019-02-02T00:30:44.684Z,42.53
2019-02-02T00:33:18.617Z,42.75
2019-02-02T00:35:53.169Z,42.72
2019-02-02T00:38:26.615Z,42.54
2019-02-02T00:41:01.216Z,42.31
2019-02-02T00:43:34.883Z,42.03
2019-02-02T00:46:08.676Z,41.74
2019-02-02T00:48:42.151Z,41.49
2019-02-02T00:51:15.804Z,41.53
2019-02-02T00:53:49.505Z,41.51
2019-02-02T00:56:23.106Z,41.57
2019-02-02T00:58:56.606Z,41.58
2019-02-02T01:01:29.823Z,41.37
2019-02-02T01:04:03.655Z,41.19
2019-02-02T01:06:38.566Z,41.11
2019-02-02T01:09:14.549Z,40.78
2019-02-02T01:11:47.975Z,40.33
2019-02-02T01:14:22.235Z,40.36
2019-02-02T01:16:55.385Z,40.71
2019-02-02T01:19:28.775Z,40.76
2019-02-02T01:22:02.039Z,40.82
2019-02-02T01:24:35.188Z,40.76
2019-02-02T01:27:08.649Z,40.73
2019-02-02T01:29:42.054Z,40.65
2019-02-02T01:32:15.595Z,40.50
2019-02-02T01:34:49.072Z,40.70
2019-02-02T01:37:22.420Z,40.28
2019-02-02T01:39:55.875Z,40.40
2019-02-02T01:42:29.467Z,40.19
2019-02-02T01:45:04.159Z,40.19
2019-02-02T01:47:37.493Z,40.19
2019-02-02T01:50:18.459Z,40.22
2019-02-02T01:52:52.031Z,40.32
2019-02-02T01:55:26.954Z,40.18
2019-02-02T01:58:01.743Z,40.17
2019-02-02T02:00:36.931Z,40.02
2019-02-02T02:03:10.232Z,40.47
2019-02-02T02:05:44.341Z,40.03
2019-02-02T02:08:18.288Z,39.72
2019-02-02T02:10:52.034Z,38.96
2019-02-02T02:16:17.457Z,38.42
2019-02-02T02:18:51.334Z,38.60
2019-02-02T02:21:27.486Z,38.71
2019-02-02T02:29:45.397Z,37.85
2019-02-02T02:32:19.607Z,37.28
2019-02-02T02:34:54.526Z,37.41
2019-02-02T02:37:28.106Z,37.33
2019-02-02T02:40:01.965Z,36.88
2019-02-02T02:42:35.798Z,36.52
2019-02-02T02:45:11.832Z,36.03
2019-02-02T02:47:46.230Z,35.61
2019-02-02T02:50:21.876Z,34.85
2019-02-02T02:52:55.103Z,34.75
2019-02-02T02:55:28.468Z,34.95
2019-02-02T02:58:02.457Z,35.45
2019-02-02T03:00:36.759Z,35.61
2019-02-02T03:03:11.772Z,35.50
2019-02-02T03:05:46.471Z,35.40
2019-02-02T03:08:20.169Z,35.21
2019-02-02T03:10:53.855Z,35.87
2019-02-02T03:13:27.084Z,35.88
2019-02-02T03:16:00.536Z,35.77
2019-02-02T03:18:34.461Z,35.62
2019-02-02T03:21:07.840Z,35.72
2019-02-02T03:23:41.190Z,35.50
2019-02-02T03:26:14.378Z,35.75
2019-02-02T03:28:53.540Z,35.57
2019-02-02T03:31:22.479Z,35.19
2019-02-02T03:33:55.745Z,35.16
2019-02-02T03:36:29.287Z,35.28
2019-02-02T03:39:02.642Z,34.76
2019-02-02T03:41:36.214Z,34.75
2019-02-02T03:44:09.861Z,35.03
2019-02-02T03:46:43.272Z,35.04
2019-02-02T03:49:17.016Z,35.10
2019-02-02T03:51:50.133Z,35.42
2019-02-02T03:54:23.135Z,35.36
2019-02-02T03:56:56.327Z,35.26
2019-02-02T03:59:30.278Z,35.02
2019-02-02T04:02:03.423Z,34.97
2019-02-02T04:04:36.548Z,34.88
2019-02-02T04:07:09.689Z,34.75
2019-02-02T04:09:42.853Z,34.56
2019-02-02T04:12:16.060Z,34.52
2019-02-02T04:14:49.140Z,34.74
2019-02-02T04:17:23.715Z,34.38
2019-02-02T04:19:56.922Z,34.52
2019-02-02T04:22:31.140Z,34.00
2019-02-02T04:25:04.533Z,33.67
2019-02-02T04:27:37.803Z,33.49
2019-02-02T04:30:16.437Z,33.66
2019-02-02T04:32:50.247Z,34.17
2019-02-02T04:35:23.727Z,34.17
2019-02-02T04:37:58.369Z,34.00
2019-02-02T04:40:32.125Z,33.96
2019-02-02T04:43:07.042Z,33.53
2019-02-02T04:45:40.705Z,33.48
2019-02-02T04:48:14.952Z,33.29
2019-02-02T04:50:48.174Z,33.47
2019-02-02T04:53:21.162Z,33.15
2019-02-02T04:55:54.678Z,33.15
2019-02-02T04:58:27.990Z,33.20
2019-02-02T05:01:01.560Z,33.07
2019-02-02T05:03:35.173Z,33.04
2019-02-02T05:06:08.334Z,33.31
2019-02-02T05:08:41.541Z,33.10
2019-02-02T05:11:14.933Z,33.18
2019-02-02T05:13:48.150Z,32.71
2019-02-02T05:16:21.573Z,32.77
2019-02-02T05:18:54.772Z,32.43
2019-02-02T05:21:29.013Z,32.06
2019-02-02T05:24:02.327Z,32.01
2019-02-02T05:26:35.598Z,32.02
2019-02-02T05:29:08.578Z,32.40
2019-02-02T05:31:41.538Z,32.02
2019-02-02T05:34:14.591Z,31.71
2019-02-02T05:36:49.351Z,31.77
2019-02-02T05:39:22.594Z,31.61
2019-02-02T05:41:55.665Z,31.80
2019-02-02T05:44:29.021Z,31.83
2019-02-02T05:47:03.497Z,32.01
2019-02-02T05:49:37.192Z,32.25
2019-02-02T05:52:10.139Z,32.13
2019-02-02T05:54:43.392Z,32.35
2019-02-02T05:57:16.667Z,32.83
2019-02-02T05:59:52.778Z,32.63
2019-02-02T06:02:24.396Z,32.42
2019-02-02T06:04:57.384Z,32.57
2019-02-02T06:07:30.478Z,32.98
2019-02-02T06:10:03.842Z,33.37
2019-02-02T06:12:38.050Z,33.99
2019-02-02T06:15:11.602Z,34.23
2019-02-02T06:17:44.818Z,34.42
2019-02-02T06:20:18.843Z,34.68
2019-02-02T06:22:53.058Z,34.76
2019-02-02T06:25:26.493Z,35.28
2019-02-02T06:27:59.862Z,35.36
2019-02-02T06:30:33.075Z,35.58
2019-02-02T06:33:06.461Z,35.81
2019-02-02T06:35:39.572Z,36.29
2019-02-02T06:38:13.371Z,36.31
2019-02-02T06:40:47.270Z,36.62
2019-02-02T06:43:21.869Z,37.18
2019-02-02T06:45:55.218Z,37.52
2019-02-02T06:48:28.585Z,37.81
2019-02-02T06:51:01.882Z,38.00
2019-02-02T06:53:35.087Z,38.19
2019-02-02T06:56:08.125Z,38.23
2019-02-02T06:58:42.374Z,38.35
2019-02-02T07:01:15.670Z,38.43
2019-02-02T07:03:49.971Z,38.43
2019-02-02T07:06:23.111Z,39.03
2019-02-02T07:08:56.367Z,39.03
2019-02-02T07:11:29.335Z,39.12
2019-02-02T07:14:02.459Z,39.00
2019-02-02T07:16:37.003Z,39.13
2019-02-02T07:19:10.326Z,39.22
2019-02-02T07:21:44.287Z,39.03
2019-02-02T07:24:24.703Z,39.11
2019-02-02T07:26:58.121Z,39.14
2019-02-02T07:29:31.669Z,39.39
2019-02-02T07:32:05.143Z,39.54
2019-02-02T07:34:38.265Z,39.71
2019-02-02T07:37:12.762Z,39.80
2019-02-02T07:39:46.244Z,40.08
2019-02-02T07:42:19.522Z,39.95
2019-02-02T07:44:53.744Z,39.87
2019-02-02T07:47:26.958Z,39.97
2019-02-02T07:50:00.329Z,39.84
2019-02-02T07:52:33.240Z,39.72
2019-02-02T07:55:07.828Z,39.63
2019-02-02T07:57:41.960Z,39.95
2019-02-02T08:00:39.725Z,39.94
2019-02-02T08:03:02.628Z,39.79
2019-02-02T08:05:36.489Z,39.69
2019-02-02T08:08:10.041Z,39.71
2019-02-02T08:10:45.058Z,39.94
2019-02-02T08:13:24.302Z,39.86
2019-02-02T08:15:56.543Z,39.85
2019-02-02T08:18:30.043Z,39.79
2019-02-02T08:21:03.990Z,39.91
2019-02-02T08:23:46.263Z,40.15
2019-02-02T08:26:22.059Z,39.96
2019-02-02T08:28:55.600Z,40.14
2019-02-02T08:31:28.812Z,40.19
2019-02-02T08:34:02.260Z,40.41
2019-02-02T08:36:35.528Z,40.45
2019-02-02T08:39:10.427Z,40.47
2019-02-02T08:41:44.820Z,40.65
2019-02-02T08:44:19.331Z,40.65
2019-02-02T08:46:52.570Z,40.62
2019-02-02T08:49:26.050Z,40.80
2019-02-02T08:51:59.324Z,41.05
2019-02-02T08:54:32.799Z,41.36
2019-02-02T08:57:06.604Z,40.91
2019-02-02T08:59:41.167Z,40.85
2019-02-02T09:02:14.833Z,40.65
2019-02-02T09:04:48.710Z,40.76
2019-02-02T09:07:22.242Z,40.89
2019-02-02T09:09:55.512Z,40.86
2019-02-02T09:12:29.320Z,41.11
2019-02-02T09:15:03.333Z,41.07
2019-02-02T09:17:37.063Z,41.20
2019-02-02T09:20:13.586Z,41.51
2019-02-02T09:22:47.920Z,41.51
2019-02-02T09:25:22.833Z,41.83
2019-02-02T09:27:56.497Z,41.93
2019-02-02T09:30:34.733Z,42.05
2019-02-02T09:33:09.282Z,42.30
2019-02-02T09:35:43.051Z,42.41
2019-02-02T09:38:18.078Z,42.54
2019-02-02T09:40:51.624Z,42.66
2019-02-02T09:43:25.452Z,42.87
2019-02-02T09:46:00.000Z,42.98
2019-02-02T09:48:33.850Z,43.31
2019-02-02T09:51:08.167Z,43.25
2019-02-02T09:53:42.061Z,43.11
2019-02-02T09:56:17.548Z,42.91
2019-02-02T09:58:51.746Z,43.17
2019-02-02T10:01:27.799Z,43.08
2019-02-02T10:03:59.806Z,43.32
2019-02-02T10:06:34.084Z,43.40
2019-02-02T10:09:08.788Z,43.79
2019-02-02T10:11:42.718Z,43.90
2019-02-02T10:14:16.177Z,43.83
2019-02-02T10:16:51.193Z,43.44
2019-02-02T10:19:25.073Z,43.46
2019-02-02T10:21:59.598Z,43.21
2019-02-02T10:24:34.426Z,43.25
2019-02-02T10:27:10.599Z,43.16
2019-02-02T10:29:48.447Z,43.02
2019-02-02T10:32:22.472Z,43.13
2019-02-02T10:34:58.025Z,42.94
2019-02-02T10:37:33.507Z,42.34
2019-02-02T10:40:09.354Z,42.39
2019-02-02T10:42:43.802Z,42.41
2019-02-02T10:45:18.827Z,42.30
2019-02-02T10:47:52.716Z,42.31
2019-02-02T10:50:28.805Z,42.42
2019-02-02T10:53:03.709Z,42.79
2019-02-02T10:55:37.089Z,42.50
2019-02-02T10:58:11.114Z,42.67
2019-02-02T11:00:44.799Z,42.56
2019-02-02T11:03:19.104Z,42.68
2019-02-02T11:05:53.779Z,42.74
2019-02-02T11:08:28.491Z,43.02
2019-02-02T11:11:02.245Z,43.01
2019-02-02T11:13:38.175Z,43.08
2019-02-02T11:16:15.617Z,42.92
2019-02-02T11:18:49.441Z,43.09
2019-02-02T11:21:24.541Z,43.09
2019-02-02T11:23:59.960Z,43.31
2019-02-02T11:26:34.694Z,43.43
2019-02-02T11:29:11.472Z,43.59
2019-02-02T11:31:48.253Z,43.77
2019-02-02T11:34:24.118Z,43.77
2019-02-02T11:36:58.189Z,43.97
2019-02-02T11:39:32.379Z,43.94
2019-02-02T11:42:07.577Z,43.98
2019-02-02T11:44:42.883Z,44.01
2019-02-02T11:47:21.762Z,44.56
2019-02-02T11:50:16.541Z,44.80
2019-02-02T11:52:50.842Z,45.04
2019-02-02T11:55:30.785Z,45.09
2019-02-02T11:58:04.941Z,45.48
2019-02-02T12:00:43.184Z,45.28
2019-02-02T12:03:16.505Z,45.49
2019-02-02T12:05:50.090Z,46.05
2019-02-02T12:08:23.852Z,46.05
2019-02-02T12:10:57.434Z,45.88
2019-02-02T12:13:31.592Z,46.25
2019-02-02T12:16:05.541Z,46.70
2019-02-02T12:18:40.323Z,46.57
2019-02-02T12:21:14.196Z,47.15
2019-02-02T12:23:48.652Z,47.61
2019-02-02T12:26:24.500Z,48.16
2019-02-02T12:28:58.094Z,48.44
2019-02-02T12:31:32.889Z,48.72
2019-02-02T12:34:07.453Z,49.06
2019-02-02T12:36:41.523Z,49.44
2019-02-02T12:39:15.831Z,49.46
2019-02-02T12:41:50.070Z,49.68
2019-02-02T12:44:24.565Z,49.73
2019-02-02T12:46:59.611Z,49.66
2019-02-02T12:49:33.437Z,50.14
2019-02-02T12:52:06.591Z,50.68
2019-02-02T12:54:40.352Z,50.55
2019-02-02T12:57:15.771Z,50.83
2019-02-02T12:59:49.487Z,50.83
2019-02-02T13:02:25.503Z,51.03
2019-02-02T13:05:00.548Z,51.16
2019-02-02T13:07:36.984Z,51.39
2019-02-02T13:10:15.363Z,51.32
2019-02-02T13:12:49.517Z,51.58
2019-02-02T13:15:23.254Z,52.02
2019-02-02T13:17:57.153Z,52.20
2019-02-02T13:20:31.087Z,52.22
2019-02-02T13:23:04.627Z,52.34
2019-02-02T13:25:38.906Z,52.83
2019-02-02T13:28:12.867Z,53.12
2019-02-02T13:30:47.059Z,53.07
2019-02-02T13:33:21.685Z,53.39
2019-02-02T13:35:55.630Z,53.27
2019-02-02T13:38:29.095Z,53.40
2019-02-02T13:41:02.471Z,53.52
2019-02-02T13:43:35.931Z,53.52
2019-02-02T13:46:09.184Z,53.07
2019-02-02T13:48:43.575Z,53.49
2019-02-02T13:51:17.106Z,53.78
2019-02-02T13:53:51.223Z,53.81
2019-02-02T13:56:25.153Z,54.12
2019-02-02T13:58:59.281Z,54.21
2019-02-02T14:01:41.696Z,54.52
2019-02-02T14:04:08.906Z,54.78
2019-02-02T14:06:42.581Z,54.47
2019-02-02T14:09:16.510Z,54.40
2019-02-02T14:11:49.933Z,54.54
2019-02-02T14:14:24.291Z,54.95
2019-02-02T14:16:57.623Z,54.97
2019-02-02T14:19:32.819Z,55.17
2019-02-02T14:22:06.533Z,55.17
2019-02-02T14:24:40.279Z,55.21
2019-02-02T14:27:14.614Z,55.17
2019-02-02T14:29:48.292Z,55.30
2019-02-02T14:32:22.173Z,55.47
2019-02-02T14:34:55.452Z,55.57
2019-02-02T14:37:28.897Z,55.31
2019-02-02T14:40:02.393Z,55.56
2019-02-02T14:42:35.647Z,55.46
2019-02-02T14:45:11.658Z,56.17
2019-02-02T14:47:45.681Z,56.14
2019-02-02T14:50:20.860Z,56.25
2019-02-02T14:52:55.027Z,56.87
2019-02-02T14:55:30.558Z,56.84
2019-02-02T14:58:03.913Z,57.09
2019-02-02T15:00:37.386Z,57.25
2019-02-02T15:03:10.743Z,57.31
2019-02-02T15:05:44.191Z,57.41
2019-02-02T15:08:17.353Z,57.14
2019-02-02T15:10:51.184Z,57.71
2019-02-02T15:13:24.691Z,58.01
2019-02-02T15:15:58.360Z,58.74
2019-02-02T15:18:32.260Z,58.63
2019-02-02T15:21:05.574Z,59.02
2019-02-02T15:23:39.072Z,59.01
2019-02-02T15:26:12.548Z,58.99
2019-02-02T15:28:45.984Z,59.23
2019-02-02T15:31:19.328Z,58.74
2019-02-02T15:33:53.004Z,59.09
2019-02-02T15:36:26.235Z,59.62
2019-02-02T15:38:59.841Z,59.40
2019-02-02T15:41:33.318Z,59.77
2019-02-02T15:44:06.722Z,59.37
2019-02-02T15:46:48.751Z,59.39
2019-02-02T15:49:16.165Z,60.21
2019-02-02T15:51:49.987Z,59.75
2019-02-02T15:54:23.749Z,60.01
2019-02-02T15:56:57.466Z,60.49
2019-02-02T15:59:30.935Z,60.47
2019-02-02T16:02:04.311Z,61.15
2019-02-02T16:04:38.123Z,61.43
2019-02-02T16:07:11.725Z,61.45
2019-02-02T16:09:53.281Z,61.31
2019-02-02T16:12:26.516Z,61.30
2019-02-02T16:15:02.823Z,60.87
2019-02-02T16:17:37.065Z,61.57
2019-02-02T16:20:16.356Z,61.74
2019-02-02T16:22:49.573Z,61.71
2019-02-02T16:25:23.072Z,61.58
2019-02-02T16:27:57.553Z,61.57
2019-02-02T16:30:33.921Z,61.42
2019-02-02T16:33:07.594Z,62.10
2019-02-02T16:35:45.955Z,61.98
2019-02-02T16:38:17.129Z,62.14
2019-02-02T16:40:53.147Z,62.19
2019-02-02T16:43:27.139Z,62.65
2019-02-02T16:46:10.584Z,62.31
2019-02-02T16:48:42.059Z,62.07
2019-02-02T16:51:15.460Z,61.78
2019-02-02T16:53:48.749Z,62.18
2019-02-02T16:56:22.154Z,62.32
2019-02-02T16:58:55.704Z,62.87
2019-02-02T17:01:29.903Z,62.84
2019-02-02T17:04:15.049Z,62.07
2019-02-02T17:06:38.092Z,63.43
2019-02-02T17:09:13.957Z,63.13
2019-02-02T17:11:46.606Z,63.04
2019-02-02T17:14:19.849Z,63.04
2019-02-02T17:16:53.215Z,63.68
2019-02-02T17:19:26.616Z,64.07
2019-02-02T17:22:01.421Z,64.52
2019-02-02T17:24:34.906Z,64.57
2019-02-02T17:27:10.311Z,63.82
2019-02-02T17:29:43.659Z,63.69
2019-02-02T17:32:18.277Z,63.73
2019-02-02T17:34:52.704Z,63.78
2019-02-02T17:37:26.216Z,63.58
2019-02-02T17:39:59.680Z,63.55
2019-02-02T17:42:33.166Z,63.52
2019-02-02T17:45:07.933Z,63.94
2019-02-02T17:47:41.399Z,63.96
2019-02-02T17:50:17.623Z,64.23
2019-02-02T17:52:51.311Z,64.57
2019-02-02T17:55:24.704Z,64.81
2019-02-02T17:57:58.263Z,64.69
2019-02-02T18:00:42.313Z,64.28
2019-02-02T18:03:16.384Z,64.37
2019-02-02T18:05:49.751Z,64.69
2019-02-02T18:08:23.112Z,64.37
2019-02-02T18:10:56.545Z,64.33
2019-02-02T18:13:30.250Z,64.17
2019-02-02T18:16:15.385Z,64.98
2019-02-02T18:18:42.961Z,65.51
2019-02-02T18:21:16.146Z,65.98
2019-02-02T18:23:49.449Z,66.13
2019-02-02T18:26:22.696Z,66.09
2019-02-02T18:28:56.302Z,66.58
2019-02-02T18:31:29.797Z,66.54
2019-02-02T18:34:03.064Z,66.64
2019-02-02T18:36:36.848Z,66.62
2019-02-02T18:39:11.148Z,66.00
2019-02-02T18:41:44.666Z,66.78
2019-02-02T18:44:18.215Z,67.16
2019-02-02T18:46:52.190Z,67.37
2019-02-02T18:49:25.707Z,66.95
2019-02-02T18:52:00.559Z,66.48
2019-02-02T18:54:34.115Z,67.05
2019-02-02T18:57:09.050Z,67.59
2019-02-02T18:59:42.424Z,67.30
2019-02-02T19:02:15.763Z,67.49
2019-02-02T19:05:02.984Z,68.31
2019-02-02T19:07:25.854Z,68.64
2019-02-02T19:09:59.278Z,68.49
2019-02-02T19:12:32.744Z,68.78
2019-02-02T19:15:08.779Z,68.48
2019-02-02T19:17:42.591Z,68.27
2019-02-02T19:20:25.585Z,68.07
2019-02-02T19:22:59.272Z,68.55
2019-02-02T19:25:32.886Z,68.06
2019-02-02T19:28:07.247Z,68.40
2019-02-02T19:30:40.717Z,68.25
2019-02-02T19:33:14.046Z,67.68
2019-02-02T19:35:47.520Z,67.89
2019-02-02T19:38:20.920Z,67.88
2019-02-02T19:40:57.777Z,67.02
2019-02-02T19:43:31.425Z,67.21
2019-02-02T19:46:05.035Z,66.83
2019-02-02T19:48:38.414Z,65.74
2019-02-02T19:51:11.639Z,65.52
2019-02-02T19:53:44.910Z,65.43
2019-02-02T19:56:19.384Z,65.61
2019-02-02T19:58:52.600Z,64.19
2019-02-02T20:01:25.851Z,63.58
2019-02-02T20:03:59.885Z,62.51
2019-02-02T20:06:33.284Z,61.61
2019-02-02T20:09:08.818Z,61.37
2019-02-02T20:11:42.142Z,59.72
2019-02-02T20:14:15.534Z,58.87
2019-02-02T20:16:49.366Z,59.03
2019-02-02T20:19:22.809Z,58.28
2019-02-02T20:21:56.001Z,56.84
2019-02-02T20:24:29.438Z,54.85
2019-02-02T20:27:02.698Z,53.40
2019-02-02T20:29:35.726Z,53.49
2019-02-02T20:32:10.340Z,52.56
2019-02-02T20:34:43.818Z,52.75
2019-02-02T20:37:17.102Z,51.19
2019-02-02T20:39:50.340Z,51.29
2019-02-02T20:42:24.902Z,51.24
2019-02-02T20:44:58.448Z,51.56
2019-02-02T20:47:31.819Z,51.31
2019-02-02T20:50:06.155Z,51.20
2019-02-02T20:52:47.030Z,50.92
2019-02-02T20:55:26.539Z,51.06
2019-02-02T20:57:59.792Z,51.33
2019-02-02T21:00:33.972Z,51.25
2019-02-02T21:03:07.496Z,50.29
2019-02-02T21:05:51.952Z,49.90
2019-02-02T21:08:16.462Z,49.69
2019-02-02T21:10:50.464Z,49.40
2019-02-02T21:13:23.636Z,49.41
2019-02-02T21:15:56.711Z,49.09
2019-02-02T21:18:29.959Z,49.36
2019-02-02T21:21:04.159Z,47.86
2019-02-02T21:23:37.587Z,47.14
2019-02-02T21:26:11.697Z,46.93
2019-02-02T21:28:50.347Z,46.62
2019-02-02T21:31:20.602Z,45.42
2019-02-02T21:33:54.272Z,45.09
2019-02-02T21:36:27.561Z,45.06
2019-02-02T21:39:01.006Z,44.35
2019-02-02T21:41:35.683Z,43.93
2019-02-02T21:44:12.164Z,44.10
2019-02-02T21:46:45.581Z,44.12
2019-02-02T21:49:18.913Z,44.25
2019-02-02T21:51:51.914Z,43.88
2019-02-02T21:54:25.880Z,44.77
2019-02-02T21:56:59.275Z,43.98
2019-02-02T21:59:32.489Z,43.98
2019-02-02T22:02:06.556Z,44.15
2019-02-02T22:04:41.523Z,44.26
2019-02-02T22:07:14.766Z,44.59
2019-02-02T22:09:48.494Z,44.53
2019-02-02T22:12:21.724Z,44.13
2019-02-02T22:14:54.956Z,43.75
2019-02-02T22:17:29.653Z,43.27
2019-02-02T22:20:03.036Z,43.39
2019-02-02T22:22:36.289Z,43.56
2019-02-02T22:25:29.594Z,43.39
2019-02-02T22:28:03.190Z,43.98
2019-02-02T22:30:41.575Z,44.02
2019-02-02T22:33:16.351Z,43.93
2019-02-02T22:35:49.502Z,43.71
2019-02-02T22:38:24.274Z,43.98
2019-02-02T22:40:57.374Z,43.37
2019-02-02T22:43:32.672Z,43.34
2019-02-02T22:46:12.529Z,42.99
2019-02-02T22:48:44.988Z,43.49
2019-02-02T22:51:19.278Z,42.93
2019-02-02T22:53:52.884Z,43.02
2019-02-02T22:56:25.962Z,43.60
2019-02-02T22:58:59.548Z,43.60
2019-02-02T23:01:33.707Z,43.95
2019-02-02T23:04:15.644Z,43.40
2019-02-02T23:07:02.828Z,43.53
2019-02-02T23:10:25.296Z,43.61
2019-02-02T23:13:13.986Z,43.56
2019-02-02T23:16:02.857Z,43.60
2019-02-02T23:18:37.772Z,43.54
2019-02-02T23:21:11.391Z,43.44
2019-02-02T23:23:45.444Z,43.56
2019-02-02T23:26:19.220Z,43.61
2019-02-02T23:28:53.154Z,43.83
2019-02-02T23:31:27.297Z,43.05
2019-02-02T23:34:01.755Z,42.93
2019-02-02T23:36:35.596Z,43.28
2019-02-02T23:39:09.868Z,43.33
2019-02-02T23:41:43.608Z,43.31
2019-02-02T23:44:17.708Z,43.01
2019-02-02T23:47:10.982Z,42.78
2019-02-02T23:49:45.723Z,43.18
2019-02-02T23:52:19.448Z,42.71
2019-02-02T23:54:53.135Z,42.26
2019-02-02T23:57:27.427Z,43.12
